PUA2046 SABE-SUMU
Flight info
| Callsign | PUA2046 |
|---|---|
| Flight time | 0h 44m |
| Altitude | 21000 |
| Route | DORVO8 DORVO A305 TOKAM |
| Aircraft | A20N/M-SDE2E3FGHIRWXY/LB1 |
Departure
| Time | 2026-04-26 23:00 |
|---|---|
| Airport | Aeroparque Jorge Newbery (SABE) |
Arrival
| Time | 2026-04-26 23:44 |
|---|---|
| Airport | Carrasco General Cesáreo L. Berisso International Airport (SUMU) |
| Time | Latitude | Longitude | Altitude | Speed | Heading |
|---|---|---|---|---|---|
| 2026-04-26 22:11 | -34.55703 | -58.41446 | 28 ft | 0 kts | 18° |
| 2026-04-26 22:44 | -34.55710 | -58.41449 | 28 ft | 3 kts | 18° |
| 2026-04-26 22:44 | -34.55731 | -58.41456 | 28 ft | 3 kts | 356° |
| 2026-04-26 22:45 | -34.55745 | -58.41450 | 28 ft | 2 kts | 303° |
| 2026-04-26 22:45 | -34.55758 | -58.41427 | 28 ft | 3 kts | 304° |
| 2026-04-26 22:45 | -34.55760 | -58.41422 | 28 ft | 0 kts | 304° |
| 2026-04-26 22:48 | -34.55750 | -58.41441 | 28 ft | 7 kts | 302° |
| 2026-04-26 22:49 | -34.55723 | -58.41495 | 28 ft | 8 kts | 300° |
| 2026-04-26 22:49 | -34.55722 | -58.41551 | 28 ft | 7 kts | 228° |
| 2026-04-26 22:49 | -34.55763 | -58.41582 | 28 ft | 8 kts | 211° |
| 2026-04-26 22:49 | -34.55806 | -58.41580 | 28 ft | 6 kts | 128° |
| 2026-04-26 22:50 | -34.55830 | -58.41523 | 28 ft | 9 kts | 117° |
| 2026-04-26 22:50 | -34.55859 | -58.41456 | 28 ft | 9 kts | 117° |
| 2026-04-26 22:50 | -34.55888 | -58.41387 | 28 ft | 9 kts | 117° |
| 2026-04-26 22:50 | -34.55918 | -58.41316 | 28 ft | 11 kts | 121° |
| 2026-04-26 22:51 | -34.55975 | -58.41217 | 28 ft | 15 kts | 126° |
| 2026-04-26 22:51 | -34.56038 | -58.41117 | 28 ft | 15 kts | 127° |
| 2026-04-26 22:51 | -34.56095 | -58.41024 | 28 ft | 13 kts | 127° |
| 2026-04-26 22:51 | -34.56146 | -58.40933 | 28 ft | 13 kts | 118° |
| 2026-04-26 22:52 | -34.56177 | -58.40830 | 28 ft | 13 kts | 108° |
| 2026-04-26 22:52 | -34.56224 | -58.40734 | 28 ft | 13 kts | 124° |
| 2026-04-26 22:52 | -34.56277 | -58.40640 | 28 ft | 14 kts | 124° |
| 2026-04-26 22:52 | -34.56333 | -58.40554 | 28 ft | 11 kts | 141° |
| 2026-04-26 22:53 | -34.56389 | -58.40496 | 28 ft | 11 kts | 139° |
| 2026-04-26 22:53 | -34.56408 | -58.40475 | 28 ft | 3 kts | 138° |
| 2026-04-26 22:53 | -34.56409 | -58.40474 | 28 ft | 0 kts | 139° |
| 2026-04-26 22:54 | -34.56429 | -58.40453 | 28 ft | 6 kts | 138° |
| 2026-04-26 22:54 | -34.56462 | -58.40417 | 28 ft | 7 kts | 138° |
| 2026-04-26 22:54 | -34.56498 | -58.40383 | 28 ft | 7 kts | 157° |
| 2026-04-26 22:54 | -34.56542 | -58.40395 | 28 ft | 8 kts | 210° |
| 2026-04-26 22:55 | -34.56562 | -58.40444 | 28 ft | 6 kts | 298° |
| 2026-04-26 22:55 | -34.56535 | -58.40485 | 28 ft | 0 kts | 306° |
| 2026-04-26 22:59 | -34.56499 | -58.40548 | 29 ft | 33 kts | 304° |
| 2026-04-26 23:00 | -34.56228 | -58.41036 | 29 ft | 105 kts | 304° |
| 2026-04-26 23:00 | -34.55708 | -58.41931 | 241 ft | 142 kts | 299° |
| 2026-04-26 23:00 | -34.55172 | -58.42934 | 884 ft | 142 kts | 294° |
| 2026-04-26 23:00 | -34.54581 | -58.43903 | 1671 ft | 148 kts | 304° |
| 2026-04-26 23:01 | -34.53562 | -58.44601 | 2095 ft | 196 kts | 333° |
| 2026-04-26 23:01 | -34.52060 | -58.44589 | 2542 ft | 242 kts | 8° |
| 2026-04-26 23:01 | -34.50506 | -58.43454 | 3023 ft | 283 kts | 46° |
| 2026-04-26 23:01 | -34.49808 | -58.42042 | 3497 ft | 294 kts | 74° |
| 2026-04-26 23:02 | -34.49571 | -58.39619 | 4438 ft | 288 kts | 105° |
| 2026-04-26 23:02 | -34.50134 | -58.37347 | 5465 ft | 279 kts | 121° |
| 2026-04-26 23:02 | -34.50845 | -58.35165 | 6630 ft | 278 kts | 120° |
| 2026-04-26 23:02 | -34.51508 | -58.32942 | 7662 ft | 284 kts | 117° |
| 2026-04-26 23:03 | -34.52132 | -58.30632 | 8632 ft | 292 kts | 115° |
| 2026-04-26 23:03 | -34.52728 | -58.28247 | 9647 ft | 300 kts | 112° |
| 2026-04-26 23:03 | -34.53320 | -58.25774 | 10452 ft | 314 kts | 112° |
| 2026-04-26 23:03 | -34.53969 | -58.23135 | 10875 ft | 340 kts | 112° |
| 2026-04-26 23:04 | -34.54682 | -58.20312 | 11488 ft | 358 kts | 112° |
| 2026-04-26 23:04 | -34.55407 | -58.17422 | 12309 ft | 369 kts | 112° |
| 2026-04-26 23:04 | -34.56159 | -58.14415 | 13230 ft | 376 kts | 112° |
| 2026-04-26 23:04 | -34.56932 | -58.11308 | 14140 ft | 383 kts | 112° |
| 2026-04-26 23:05 | -34.57716 | -58.08169 | 14798 ft | 395 kts | 112° |
| 2026-04-26 23:05 | -34.58526 | -58.04924 | 15382 ft | 409 kts | 112° |
| 2026-04-26 23:05 | -34.59362 | -58.01569 | 16001 ft | 421 kts | 113° |
| 2026-04-26 23:05 | -34.60217 | -57.98127 | 16794 ft | 427 kts | 112° |
| 2026-04-26 23:06 | -34.61060 | -57.94703 | 17979 ft | 423 kts | 112° |
| 2026-04-26 23:06 | -34.61918 | -57.91239 | 18483 ft | 436 kts | 114° |
| 2026-04-26 23:06 | -34.62820 | -57.87625 | 18636 ft | 458 kts | 113° |
| 2026-04-26 23:06 | -34.63746 | -57.83883 | 19161 ft | 466 kts | 113° |
| 2026-04-26 23:07 | -34.64679 | -57.80087 | 19805 ft | 472 kts | 113° |
| 2026-04-26 23:07 | -34.65614 | -57.76286 | 20393 ft | 479 kts | 113° |
| 2026-04-26 23:07 | -34.66569 | -57.72396 | 20806 ft | 483 kts | 113° |
| 2026-04-26 23:07 | -34.67530 | -57.68473 | 20922 ft | 486 kts | 113° |
| 2026-04-26 23:08 | -34.68490 | -57.64534 | 20920 ft | 488 kts | 112° |
| 2026-04-26 23:08 | -34.69175 | -57.60446 | 20928 ft | 496 kts | 104° |
| 2026-04-26 23:08 | -34.69743 | -57.56310 | 20956 ft | 496 kts | 102° |
| 2026-04-26 23:08 | -34.70220 | -57.52196 | 20925 ft | 487 kts | 101° |
| 2026-04-26 23:09 | -34.70641 | -57.48130 | 20922 ft | 484 kts | 101° |
| 2026-04-26 23:09 | -34.71042 | -57.44066 | 20930 ft | 483 kts | 100° |
| 2026-04-26 23:09 | -34.71435 | -57.40021 | 20922 ft | 483 kts | 100° |
| 2026-04-26 23:09 | -34.71833 | -57.35956 | 20924 ft | 484 kts | 100° |
| 2026-04-26 23:10 | -34.72236 | -57.31877 | 20927 ft | 488 kts | 100° |
| 2026-04-26 23:10 | -34.72644 | -57.27769 | 20925 ft | 490 kts | 100° |
| 2026-04-26 23:10 | -34.73054 | -57.23658 | 20920 ft | 491 kts | 100° |
| 2026-04-26 23:10 | -34.73465 | -57.19528 | 20919 ft | 491 kts | 100° |
| 2026-04-26 23:11 | -34.73874 | -57.15415 | 20917 ft | 491 kts | 100° |
| 2026-04-26 23:11 | -34.74282 | -57.11298 | 20917 ft | 491 kts | 100° |
| 2026-04-26 23:11 | -34.74691 | -57.07158 | 20913 ft | 495 kts | 100° |
| 2026-04-26 23:11 | -34.75104 | -57.02982 | 20946 ft | 498 kts | 99° |
| 2026-04-26 23:12 | -34.75508 | -56.98852 | 20905 ft | 489 kts | 99° |
| 2026-04-26 23:12 | -34.75904 | -56.94767 | 20903 ft | 484 kts | 99° |
| 2026-04-26 23:12 | -34.76299 | -56.90701 | 20907 ft | 483 kts | 99° |
| 2026-04-26 23:12 | -34.76692 | -56.86643 | 20907 ft | 483 kts | 99° |
| 2026-04-26 23:13 | -34.77085 | -56.82585 | 20884 ft | 484 kts | 99° |
| 2026-04-26 23:13 | -34.77484 | -56.78468 | 20636 ft | 494 kts | 99° |
| 2026-04-26 23:13 | -34.77865 | -56.74327 | 20016 ft | 492 kts | 97° |
| 2026-04-26 23:13 | -34.77737 | -56.70137 | 18981 ft | 499 kts | 83° |
| 2026-04-26 23:14 | -34.77171 | -56.65968 | 18281 ft | 496 kts | 79° |
| 2026-04-26 23:14 | -34.76528 | -56.61920 | 17985 ft | 478 kts | 79° |
| 2026-04-26 23:14 | -34.75892 | -56.58029 | 17139 ft | 464 kts | 79° |
| 2026-04-26 23:14 | -34.75258 | -56.54196 | 15851 ft | 462 kts | 79° |
| 2026-04-26 23:15 | -34.74626 | -56.50393 | 14937 ft | 453 kts | 79° |
| 2026-04-26 23:15 | -34.74014 | -56.46734 | 14375 ft | 433 kts | 79° |
| 2026-04-26 23:15 | -34.73421 | -56.43190 | 13421 ft | 424 kts | 80° |
| 2026-04-26 23:15 | -34.72838 | -56.39707 | 12366 ft | 416 kts | 80° |
| 2026-04-26 23:16 | -34.72265 | -56.36294 | 11492 ft | 406 kts | 80° |
| 2026-04-26 23:16 | -34.71710 | -56.32991 | 10835 ft | 392 kts | 80° |
| 2026-04-26 23:16 | -34.71174 | -56.29810 | 10380 ft | 374 kts | 79° |
| 2026-04-26 23:16 | -34.70665 | -56.26793 | 10063 ft | 356 kts | 79° |
| 2026-04-26 23:17 | -34.70180 | -56.23925 | 9777 ft | 338 kts | 79° |
| 2026-04-26 23:17 | -34.69714 | -56.21173 | 9294 ft | 328 kts | 79° |
| 2026-04-26 23:17 | -34.69256 | -56.18464 | 8636 ft | 326 kts | 79° |
| 2026-04-26 23:17 | -34.68800 | -56.15777 | 8001 ft | 323 kts | 79° |
| 2026-04-26 23:18 | -34.68349 | -56.13116 | 7384 ft | 321 kts | 79° |
| 2026-04-26 23:18 | -34.67898 | -56.10465 | 6770 ft | 319 kts | 79° |
| 2026-04-26 23:18 | -34.67452 | -56.07852 | 6175 ft | 315 kts | 79° |
| 2026-04-26 23:18 | -34.67008 | -56.05244 | 5523 ft | 314 kts | 79° |
| 2026-04-26 23:19 | -34.66565 | -56.02654 | 4907 ft | 313 kts | 79° |
| 2026-04-26 23:19 | -34.66125 | -56.00082 | 4412 ft | 310 kts | 78° |
| 2026-04-26 23:19 | -34.65690 | -55.97539 | 4077 ft | 301 kts | 79° |
| 2026-04-26 23:19 | -34.65303 | -55.95113 | 3968 ft | 284 kts | 85° |
| 2026-04-26 23:20 | -34.65429 | -55.92831 | 3879 ft | 260 kts | 114° |
| 2026-04-26 23:20 | -34.66280 | -55.91060 | 3801 ft | 228 kts | 143° |
| 2026-04-26 23:20 | -34.67401 | -55.89861 | 3658 ft | 206 kts | 153° |
| 2026-04-26 23:20 | -34.68523 | -55.88845 | 3429 ft | 198 kts | 155° |
| 2026-04-26 23:21 | -34.69644 | -55.87865 | 3170 ft | 198 kts | 156° |
| 2026-04-26 23:21 | -34.70759 | -55.86895 | 3009 ft | 197 kts | 158° |
| 2026-04-26 23:21 | -34.71953 | -55.86224 | 3000 ft | 183 kts | 181° |
| 2026-04-26 23:21 | -34.73124 | -55.86301 | 2981 ft | 153 kts | 210° |
| 2026-04-26 23:22 | -34.73927 | -55.86903 | 2927 ft | 123 kts | 232° |
| 2026-04-26 23:22 | -34.74434 | -55.87647 | 2683 ft | 111 kts | 239° |
| 2026-04-26 23:22 | -34.74888 | -55.88390 | 2367 ft | 108 kts | 239° |
| 2026-04-26 23:22 | -34.75335 | -55.89125 | 2026 ft | 108 kts | 239° |
| 2026-04-26 23:23 | -34.75780 | -55.89857 | 1744 ft | 106 kts | 239° |
| 2026-04-26 23:23 | -34.76227 | -55.90594 | 1764 ft | 117 kts | 239° |
| 2026-04-26 23:23 | -34.76736 | -55.91438 | 1776 ft | 127 kts | 239° |
| 2026-04-26 23:23 | -34.77260 | -55.92294 | 1745 ft | 124 kts | 238° |
| 2026-04-26 23:24 | -34.77775 | -55.93131 | 1747 ft | 123 kts | 239° |
| 2026-04-26 23:24 | -34.78285 | -55.93966 | 1716 ft | 122 kts | 239° |
| 2026-04-26 23:24 | -34.78792 | -55.94795 | 1656 ft | 122 kts | 239° |
| 2026-04-26 23:24 | -34.79304 | -55.95626 | 1499 ft | 123 kts | 239° |
| 2026-04-26 23:25 | -34.79823 | -55.96454 | 1253 ft | 123 kts | 240° |
| 2026-04-26 23:25 | -34.80337 | -55.97310 | 993 ft | 127 kts | 239° |
| 2026-04-26 23:25 | -34.80866 | -55.98196 | 775 ft | 132 kts | 239° |
| 2026-04-26 23:25 | -34.81416 | -55.99091 | 569 ft | 131 kts | 238° |
| 2026-04-26 23:26 | -34.81957 | -55.99982 | 401 ft | 132 kts | 237° |
| 2026-04-26 23:26 | -34.82507 | -56.00892 | 234 ft | 136 kts | 236° |
| 2026-04-26 23:26 | -34.83072 | -56.01819 | 103 ft | 132 kts | 236° |
| 2026-04-26 23:26 | -34.83623 | -56.02699 | 294 ft | 144 kts | 236° |
| 2026-04-26 23:27 | -34.84310 | -56.03779 | 889 ft | 175 kts | 234° |
| 2026-04-26 23:27 | -34.85115 | -56.04987 | 1714 ft | 190 kts | 235° |
| 2026-04-26 23:27 | -34.85986 | -56.06260 | 2466 ft | 189 kts | 234° |
| 2026-04-26 23:27 | -34.86535 | -56.07057 | 2801 ft | 186 kts | 235° |
| 2026-04-26 23:28 | -34.87649 | -56.08705 | 2998 ft | 190 kts | 236° |
| 2026-04-26 23:28 | -34.88485 | -56.09954 | 3021 ft | 190 kts | 236° |
| 2026-04-26 23:28 | -34.89352 | -56.11177 | 2997 ft | 192 kts | 229° |
| 2026-04-26 23:28 | -34.90490 | -56.12074 | 3006 ft | 198 kts | 216° |
| 2026-04-26 23:29 | -34.91815 | -56.12618 | 3001 ft | 206 kts | 200° |
| 2026-04-26 23:29 | -34.93294 | -56.12518 | 2996 ft | 226 kts | 174° |
| 2026-04-26 23:29 | -34.94682 | -56.11449 | 3004 ft | 246 kts | 146° |
| 2026-04-26 23:29 | -34.95881 | -56.09916 | 3003 ft | 253 kts | 141° |
| 2026-04-26 23:30 | -34.97038 | -56.08293 | 2998 ft | 253 kts | 139° |
| 2026-04-26 23:30 | -34.98188 | -56.06668 | 2997 ft | 254 kts | 141° |
| 2026-04-26 23:30 | -34.99291 | -56.04965 | 2994 ft | 262 kts | 127° |
| 2026-04-26 23:30 | -34.99803 | -56.02795 | 3002 ft | 275 kts | 90° |
| 2026-04-26 23:31 | -34.99262 | -56.00604 | 2999 ft | 269 kts | 51° |
| 2026-04-26 23:31 | -34.98046 | -55.98915 | 2998 ft | 265 kts | 38° |
| 2026-04-26 23:31 | -34.96713 | -55.97359 | 3000 ft | 266 kts | 36° |
| 2026-04-26 23:31 | -34.95369 | -55.95786 | 3000 ft | 268 kts | 37° |
| 2026-04-26 23:32 | -34.94062 | -55.94216 | 3001 ft | 267 kts | 38° |
| 2026-04-26 23:32 | -34.92756 | -55.92614 | 2996 ft | 257 kts | 38° |
| 2026-04-26 23:32 | -34.91512 | -55.91074 | 3000 ft | 255 kts | 38° |
| 2026-04-26 23:32 | -34.90267 | -55.89531 | 2998 ft | 256 kts | 38° |
| 2026-04-26 23:33 | -34.89035 | -55.88000 | 2997 ft | 256 kts | 39° |
| 2026-04-26 23:33 | -34.87773 | -55.86427 | 2995 ft | 256 kts | 39° |
| 2026-04-26 23:33 | -34.86523 | -55.84870 | 2995 ft | 257 kts | 39° |
| 2026-04-26 23:33 | -34.85270 | -55.83325 | 2993 ft | 256 kts | 39° |
| 2026-04-26 23:34 | -34.84033 | -55.81812 | 2993 ft | 255 kts | 38° |
| 2026-04-26 23:34 | -34.82776 | -55.80281 | 2992 ft | 256 kts | 38° |
| 2026-04-26 23:34 | -34.81521 | -55.78738 | 2994 ft | 258 kts | 39° |
| 2026-04-26 23:34 | -34.80262 | -55.77184 | 2991 ft | 257 kts | 39° |
| 2026-04-26 23:35 | -34.79004 | -55.75647 | 2985 ft | 255 kts | 38° |
| 2026-04-26 23:35 | -34.77754 | -55.74115 | 2986 ft | 255 kts | 38° |
| 2026-04-26 23:35 | -34.76501 | -55.72576 | 2970 ft | 255 kts | 39° |
| 2026-04-26 23:35 | -34.75226 | -55.71093 | 2974 ft | 251 kts | 31° |
| 2026-04-26 23:36 | -34.73719 | -55.70269 | 2987 ft | 228 kts | 356° |
| 2026-04-26 23:36 | -34.72246 | -55.70496 | 2990 ft | 205 kts | 327° |
| 2026-04-26 23:36 | -34.70995 | -55.71272 | 2986 ft | 201 kts | 319° |
| 2026-04-26 23:36 | -34.69895 | -55.72258 | 2988 ft | 193 kts | 305° |
| 2026-04-26 23:37 | -34.69146 | -55.73548 | 2984 ft | 183 kts | 286° |
| 2026-04-26 23:37 | -34.68921 | -55.75022 | 2988 ft | 177 kts | 263° |
| 2026-04-26 23:37 | -34.69238 | -55.76445 | 3025 ft | 175 kts | 249° |
| 2026-04-26 23:37 | -34.69761 | -55.77795 | 2997 ft | 177 kts | 245° |
| 2026-04-26 23:38 | -34.70305 | -55.79082 | 2987 ft | 164 kts | 245° |
| 2026-04-26 23:38 | -34.70823 | -55.80288 | 2993 ft | 162 kts | 245° |
| 2026-04-26 23:38 | -34.71238 | -55.81553 | 2991 ft | 159 kts | 260° |
| 2026-04-26 23:38 | -34.71540 | -55.82810 | 2950 ft | 152 kts | 244° |
| 2026-04-26 23:39 | -34.72140 | -55.83856 | 2599 ft | 153 kts | 239° |
| 2026-04-26 23:39 | -34.72780 | -55.84910 | 2191 ft | 155 kts | 239° |
| 2026-04-26 23:39 | -34.73406 | -55.85938 | 2074 ft | 154 kts | 239° |
| 2026-04-26 23:39 | -34.74048 | -55.87015 | 2064 ft | 158 kts | 239° |
| 2026-04-26 23:40 | -34.74692 | -55.88079 | 2082 ft | 151 kts | 238° |
| 2026-04-26 23:40 | -34.75272 | -55.89024 | 2075 ft | 128 kts | 238° |
| 2026-04-26 23:40 | -34.75778 | -55.89852 | 2076 ft | 118 kts | 239° |
| 2026-04-26 23:40 | -34.76265 | -55.90654 | 2072 ft | 118 kts | 239° |
| 2026-04-26 23:41 | -34.76754 | -55.91457 | 2078 ft | 118 kts | 239° |
| 2026-04-26 23:41 | -34.77240 | -55.92253 | 1973 ft | 118 kts | 239° |
| 2026-04-26 23:41 | -34.77732 | -55.93061 | 1813 ft | 122 kts | 239° |
| 2026-04-26 23:41 | -34.78243 | -55.93898 | 1622 ft | 118 kts | 239° |
| 2026-04-26 23:42 | -34.78723 | -55.94685 | 1469 ft | 115 kts | 239° |
| 2026-04-26 23:42 | -34.79674 | -55.96248 | 1157 ft | 118 kts | 238° |
| 2026-04-26 23:42 | -34.80172 | -55.97062 | 990 ft | 122 kts | 238° |
| 2026-04-26 23:43 | -34.80682 | -55.97891 | 775 ft | 123 kts | 239° |
| 2026-04-26 23:43 | -34.81186 | -55.98745 | 641 ft | 126 kts | 237° |
| 2026-04-26 23:43 | -34.81730 | -55.99599 | 467 ft | 129 kts | 237° |
| 2026-04-26 23:43 | -34.82256 | -56.00479 | 300 ft | 128 kts | 237° |
| 2026-04-26 23:44 | -34.82785 | -56.01342 | 138 ft | 126 kts | 237° |
| 2026-04-26 23:44 | -34.83272 | -56.02158 | 86 ft | 102 kts | 234° |
| 2026-04-26 23:44 | -34.83592 | -56.02679 | 94 ft | 57 kts | 234° |
| 2026-04-26 23:44 | -34.83707 | -56.02864 | 86 ft | 12 kts | 231° |
| 2026-04-26 23:45 | -34.83748 | -56.02867 | 85 ft | 13 kts | 160° |
| 2026-04-26 23:45 | -34.83808 | -56.02859 | 84 ft | 13 kts | 176° |
| 2026-04-26 23:45 | -34.83935 | -56.02806 | 64 ft | 14 kts | 152° |
| 2026-04-26 23:45 | -34.83981 | -56.02736 | 65 ft | 10 kts | 69° |
| 2026-04-26 23:46 | -34.83959 | -56.02685 | 57 ft | 11 kts | 68° |
| 2026-04-26 23:46 | -34.83946 | -56.02584 | 65 ft | 13 kts | 85° |
| 2026-04-26 23:46 | -34.83945 | -56.02471 | 64 ft | 14 kts | 90° |
| 2026-04-26 23:46 | -34.83946 | -56.02367 | 64 ft | 12 kts | 90° |
| 2026-04-26 23:47 | -34.83938 | -56.02261 | 58 ft | 12 kts | 55° |
| 2026-04-26 23:47 | -34.83876 | -56.02244 | 66 ft | 7 kts | 3° |
| 2026-04-26 23:47 | -34.83817 | -56.02240 | 70 ft | 8 kts | 2° |
| 2026-04-26 23:47 | -34.83779 | -56.02230 | 74 ft | 7 kts | 29° |
| 2026-04-26 23:48 | -34.83740 | -56.02170 | 70 ft | 11 kts | 54° |
| 2026-04-26 23:48 | -34.83704 | -56.02110 | 77 ft | 5 kts | 53° |
| 2026-04-26 23:48 | -34.83681 | -56.02073 | 77 ft | 6 kts | 53° |
| 2026-04-26 23:48 | -34.83652 | -56.02025 | 69 ft | 8 kts | 53° |
| 2026-04-26 23:49 | -34.83615 | -56.01964 | 77 ft | 10 kts | 53° |
| 2026-04-26 23:49 | -34.83576 | -56.01901 | 73 ft | 10 kts | 53° |
| 2026-04-26 23:49 | -34.83534 | -56.01832 | 73 ft | 11 kts | 53° |
| 2026-04-26 23:49 | -34.83511 | -56.01779 | 74 ft | 4 kts | 115° |
| 2026-04-26 23:50 | -34.83527 | -56.01767 | 67 ft | 3 kts | 150° |
| 2026-04-26 23:50 | -34.83554 | -56.01746 | 74 ft | 4 kts | 144° |
| 2026-04-26 23:50 | -34.83576 | -56.01726 | 70 ft | 4 kts | 144° |
| 2026-04-26 23:50 | -34.83589 | -56.01715 | 73 ft | 0 kts | 143° |